sensor_id;sensor_type;location;lat;lon;timestamp;temperature;humidity
67820;DHT22;54618;52.018;5.576;2022-09-01T00:00:50;22.00;61.80
67820;DHT22;54618;52.018;5.576;2022-09-01T00:03:17;22.00;61.90
67820;DHT22;54618;52.018;5.576;2022-09-01T00:05:43;22.00;61.80
67820;DHT22;54618;52.018;5.576;2022-09-01T00:08:11;22.00;61.80
67820;DHT22;54618;52.018;5.576;2022-09-01T00:10:37;22.00;61.80
67820;DHT22;54618;52.018;5.576;2022-09-01T00:13:04;22.00;61.80
67820;DHT22;54618;52.018;5.576;2022-09-01T00:15:32;22.00;61.80
67820;DHT22;54618;52.018;5.576;2022-09-01T00:17:57;22.00;61.80
67820;DHT22;54618;52.018;5.576;2022-09-01T00:20:23;22.00;61.80
67820;DHT22;54618;52.018;5.576;2022-09-01T00:22:48;22.00;61.80
67820;DHT22;54618;52.018;5.576;2022-09-01T00:25:14;21.90;61.80
67820;DHT22;54618;52.018;5.576;2022-09-01T00:27:39;22.00;61.80
67820;DHT22;54618;52.018;5.576;2022-09-01T00:30:05;21.90;61.70
67820;DHT22;54618;52.018;5.576;2022-09-01T00:32:32;22.00;61.80
67820;DHT22;54618;52.018;5.576;2022-09-01T00:34:57;22.00;61.80
67820;DHT22;54618;52.018;5.576;2022-09-01T00:37:23;22.00;61.80
67820;DHT22;54618;52.018;5.576;2022-09-01T00:39:48;22.00;61.70
67820;DHT22;54618;52.018;5.576;2022-09-01T00:42:14;21.90;61.70
67820;DHT22;54618;52.018;5.576;2022-09-01T00:44:39;22.00;61.70
67820;DHT22;54618;52.018;5.576;2022-09-01T00:47:05;22.00;61.80
67820;DHT22;54618;52.018;5.576;2022-09-01T00:49:35;21.90;61.60
67820;DHT22;54618;52.018;5.576;2022-09-01T00:52:12;21.90;61.70
67820;DHT22;54618;52.018;5.576;2022-09-01T00:54:44;21.90;61.60
67820;DHT22;54618;52.018;5.576;2022-09-01T00:57:10;21.90;61.70
67820;DHT22;54618;52.018;5.576;2022-09-01T00:59:52;21.90;61.60
67820;DHT22;54618;52.018;5.576;2022-09-01T01:02:19;21.90;61.60
67820;DHT22;54618;52.018;5.576;2022-09-01T01:04:44;21.90;61.60
67820;DHT22;54618;52.018;5.576;2022-09-01T01:07:11;21.90;61.60
67820;DHT22;54618;52.018;5.576;2022-09-01T01:09:41;22.00;61.60
67820;DHT22;54618;52.018;5.576;2022-09-01T01:12:08;21.90;61.60
67820;DHT22;54618;52.018;5.576;2022-09-01T01:14:38;21.90;61.60
67820;DHT22;54618;52.018;5.576;2022-09-01T01:17:04;21.90;61.60
67820;DHT22;54618;52.018;5.576;2022-09-01T01:19:33;21.90;61.50
67820;DHT22;54618;52.018;5.576;2022-09-01T01:22:28;21.90;61.60
67820;DHT22;54618;52.018;5.576;2022-09-01T01:25:14;21.90;61.50
67820;DHT22;54618;52.018;5.576;2022-09-01T01:27:43;21.90;61.50
67820;DHT22;54618;52.018;5.576;2022-09-01T01:30:11;21.90;61.50
67820;DHT22;54618;52.018;5.576;2022-09-01T01:32:38;21.90;61.50
67820;DHT22;54618;52.018;5.576;2022-09-01T01:35:07;21.90;61.50
67820;DHT22;54618;52.018;5.576;2022-09-01T01:37:42;21.90;61.50
67820;DHT22;54618;52.018;5.576;2022-09-01T01:40:15;21.90;61.50
67820;DHT22;54618;52.018;5.576;2022-09-01T01:42:46;21.90;61.50
67820;DHT22;54618;52.018;5.576;2022-09-01T01:45:15;21.90;61.50
67820;DHT22;54618;52.018;5.576;2022-09-01T01:47:45;21.90;61.50
67820;DHT22;54618;52.018;5.576;2022-09-01T01:50:29;21.90;61.50
67820;DHT22;54618;52.018;5.576;2022-09-01T01:52:59;21.90;61.50
67820;DHT22;54618;52.018;5.576;2022-09-01T01:55:26;21.90;61.50
67820;DHT22;54618;52.018;5.576;2022-09-01T01:57:53;21.90;61.50
67820;DHT22;54618;52.018;5.576;2022-09-01T02:00:23;21.90;61.50
67820;DHT22;54618;52.018;5.576;2022-09-01T02:02:49;21.90;61.50
67820;DHT22;54618;52.018;5.576;2022-09-01T02:05:24;21.90;61.50
67820;DHT22;54618;52.018;5.576;2022-09-01T02:07:52;21.90;61.50
67820;DHT22;54618;52.018;5.576;2022-09-01T02:10:22;21.90;61.50
67820;DHT22;54618;52.018;5.576;2022-09-01T02:12:48;21.90;61.40
67820;DHT22;54618;52.018;5.576;2022-09-01T02:15:14;21.90;61.50
67820;DHT22;54618;52.018;5.576;2022-09-01T02:17:40;21.90;61.50
67820;DHT22;54618;52.018;5.576;2022-09-01T02:20:08;21.90;61.40
67820;DHT22;54618;52.018;5.576;2022-09-01T02:22:34;21.90;61.40
67820;DHT22;54618;52.018;5.576;2022-09-01T02:25:03;21.90;61.40
67820;DHT22;54618;52.018;5.576;2022-09-01T02:27:30;21.90;61.40
67820;DHT22;54618;52.018;5.576;2022-09-01T02:29:58;21.90;61.40
67820;DHT22;54618;52.018;5.576;2022-09-01T02:32:24;21.80;61.30
67820;DHT22;54618;52.018;5.576;2022-09-01T02:34:50;21.80;61.30
67820;DHT22;54618;52.018;5.576;2022-09-01T02:37:19;21.90;61.40
67820;DHT22;54618;52.018;5.576;2022-09-01T02:39:50;21.90;61.40
67820;DHT22;54618;52.018;5.576;2022-09-01T02:42:18;21.90;61.40
67820;DHT22;54618;52.018;5.576;2022-09-01T02:44:52;21.90;61.30
67820;DHT22;54618;52.018;5.576;2022-09-01T02:47:18;21.90;61.40
67820;DHT22;54618;52.018;5.576;2022-09-01T02:49:43;21.90;61.30
67820;DHT22;54618;52.018;5.576;2022-09-01T02:52:09;21.90;61.30
67820;DHT22;54618;52.018;5.576;2022-09-01T02:54:35;21.90;61.30
67820;DHT22;54618;52.018;5.576;2022-09-01T02:57:01;21.90;61.30
67820;DHT22;54618;52.018;5.576;2022-09-01T02:59:29;21.80;61.30
67820;DHT22;54618;52.018;5.576;2022-09-01T03:01:55;21.80;61.30
67820;DHT22;54618;52.018;5.576;2022-09-01T03:04:22;21.80;61.30
67820;DHT22;54618;52.018;5.576;2022-09-01T03:06:48;21.80;61.30
67820;DHT22;54618;52.018;5.576;2022-09-01T03:09:17;21.90;61.30
67820;DHT22;54618;52.018;5.576;2022-09-01T03:11:45;21.90;61.30
67820;DHT22;54618;52.018;5.576;2022-09-01T03:14:12;21.90;61.30
67820;DHT22;54618;52.018;5.576;2022-09-01T03:16:39;21.80;61.40
67820;DHT22;54618;52.018;5.576;2022-09-01T03:19:06;21.80;61.20
67820;DHT22;54618;52.018;5.576;2022-09-01T03:21:34;21.80;61.20
67820;DHT22;54618;52.018;5.576;2022-09-01T03:24:00;21.90;61.30
67820;DHT22;54618;52.018;5.576;2022-09-01T03:26:29;21.90;61.20
67820;DHT22;54618;52.018;5.576;2022-09-01T03:28:55;21.80;61.20
67820;DHT22;54618;52.018;5.576;2022-09-01T03:31:22;21.80;61.20
67820;DHT22;54618;52.018;5.576;2022-09-01T03:33:52;21.80;61.20
67820;DHT22;54618;52.018;5.576;2022-09-01T03:36:18;21.80;61.20
67820;DHT22;54618;52.018;5.576;2022-09-01T03:38:48;21.90;61.20
67820;DHT22;54618;52.018;5.576;2022-09-01T03:41:16;21.80;61.20
67820;DHT22;54618;52.018;5.576;2022-09-01T03:43:43;21.80;61.20
67820;DHT22;54618;52.018;5.576;2022-09-01T03:46:10;21.80;61.20
67820;DHT22;54618;52.018;5.576;2022-09-01T03:48:35;21.80;61.20
67820;DHT22;54618;52.018;5.576;2022-09-01T03:51:02;21.80;61.20
67820;DHT22;54618;52.018;5.576;2022-09-01T03:53:30;21.80;61.10
67820;DHT22;54618;52.018;5.576;2022-09-01T03:55:55;21.80;61.10
67820;DHT22;54618;52.018;5.576;2022-09-01T03:58:23;21.80;61.10
67820;DHT22;54618;52.018;5.576;2022-09-01T04:00:51;21.80;61.10
67820;DHT22;54618;52.018;5.576;2022-09-01T04:03:25;21.80;61.10
67820;DHT22;54618;52.018;5.576;2022-09-01T04:05:52;21.80;61.10
67820;DHT22;54618;52.018;5.576;2022-09-01T04:08:20;21.80;61.10
67820;DHT22;54618;52.018;5.576;2022-09-01T04:10:54;21.80;61.10
67820;DHT22;54618;52.018;5.576;2022-09-01T04:13:23;21.80;61.10
67820;DHT22;54618;52.018;5.576;2022-09-01T04:15:50;21.80;61.00
67820;DHT22;54618;52.018;5.576;2022-09-01T04:18:17;21.80;61.00
67820;DHT22;54618;52.018;5.576;2022-09-01T04:20:51;21.80;61.00
67820;DHT22;54618;52.018;5.576;2022-09-01T04:23:23;21.80;60.90
67820;DHT22;54618;52.018;5.576;2022-09-01T04:25:59;21.80;61.00
67820;DHT22;54618;52.018;5.576;2022-09-01T04:28:34;21.80;60.90
67820;DHT22;54618;52.018;5.576;2022-09-01T04:31:03;21.80;60.90
67820;DHT22;54618;52.018;5.576;2022-09-01T04:33:35;21.80;60.90
67820;DHT22;54618;52.018;5.576;2022-09-01T04:36:05;21.80;60.90
67820;DHT22;54618;52.018;5.576;2022-09-01T04:38:30;21.80;60.90
67820;DHT22;54618;52.018;5.576;2022-09-01T04:41:03;21.80;60.90
67820;DHT22;54618;52.018;5.576;2022-09-01T04:43:28;21.80;60.90
67820;DHT22;54618;52.018;5.576;2022-09-01T04:45:54;21.80;60.90
67820;DHT22;54618;52.018;5.576;2022-09-01T04:48:20;21.80;60.90
67820;DHT22;54618;52.018;5.576;2022-09-01T04:50:47;21.80;60.90
67820;DHT22;54618;52.018;5.576;2022-09-01T04:53:14;21.80;60.90
67820;DHT22;54618;52.018;5.576;2022-09-01T04:55:40;21.80;60.80
67820;DHT22;54618;52.018;5.576;2022-09-01T04:58:11;21.80;60.80
67820;DHT22;54618;52.018;5.576;2022-09-01T05:00:39;21.80;61.40
67820;DHT22;54618;52.018;5.576;2022-09-01T05:03:05;21.80;60.80
67820;DHT22;54618;52.018;5.576;2022-09-01T05:05:43;21.80;60.80
67820;DHT22;54618;52.018;5.576;2022-09-01T05:08:12;21.80;60.80
67820;DHT22;54618;52.018;5.576;2022-09-01T05:10:43;21.80;60.80
67820;DHT22;54618;52.018;5.576;2022-09-01T05:13:11;21.80;60.80
67820;DHT22;54618;52.018;5.576;2022-09-01T05:15:40;21.80;60.70
67820;DHT22;54618;52.018;5.576;2022-09-01T05:18:19;21.80;60.70
67820;DHT22;54618;52.018;5.576;2022-09-01T05:20:50;21.80;60.70
67820;DHT22;54618;52.018;5.576;2022-09-01T05:23:18;21.80;60.70
67820;DHT22;54618;52.018;5.576;2022-09-01T05:25:46;21.80;60.70
67820;DHT22;54618;52.018;5.576;2022-09-01T05:28:15;21.80;60.70
67820;DHT22;54618;52.018;5.576;2022-09-01T05:30:44;21.80;60.70
67820;DHT22;54618;52.018;5.576;2022-09-01T05:33:11;21.80;60.70
67820;DHT22;54618;52.018;5.576;2022-09-01T05:35:50;21.80;60.70
67820;DHT22;54618;52.018;5.576;2022-09-01T05:38:17;21.80;60.60
67820;DHT22;54618;52.018;5.576;2022-09-01T05:40:43;21.70;60.50
67820;DHT22;54618;52.018;5.576;2022-09-01T05:43:11;21.80;60.60
67820;DHT22;54618;52.018;5.576;2022-09-01T05:45:41;21.80;60.60
67820;DHT22;54618;52.018;5.576;2022-09-01T05:48:12;21.70;60.50
67820;DHT22;54618;52.018;5.576;2022-09-01T05:50:40;21.80;60.60
67820;DHT22;54618;52.018;5.576;2022-09-01T05:53:10;21.80;60.60
67820;DHT22;54618;52.018;5.576;2022-09-01T05:55:42;21.70;60.50
67820;DHT22;54618;52.018;5.576;2022-09-01T05:58:10;21.70;60.50
67820;DHT22;54618;52.018;5.576;2022-09-01T06:00:39;21.70;60.50
67820;DHT22;54618;52.018;5.576;2022-09-01T06:03:05;21.70;60.50
67820;DHT22;54618;52.018;5.576;2022-09-01T06:05:34;21.80;60.50
67820;DHT22;54618;52.018;5.576;2022-09-01T06:08:02;21.70;60.50
67820;DHT22;54618;52.018;5.576;2022-09-01T06:10:28;21.80;60.50
67820;DHT22;54618;52.018;5.576;2022-09-01T06:12:54;21.80;60.50
67820;DHT22;54618;52.018;5.576;2022-09-01T06:15:21;21.80;60.50
67820;DHT22;54618;52.018;5.576;2022-09-01T06:17:48;21.70;60.40
67820;DHT22;54618;52.018;5.576;2022-09-01T06:20:14;21.80;61.00
67820;DHT22;54618;52.018;5.576;2022-09-01T06:22:42;21.80;60.40
67820;DHT22;54618;52.018;5.576;2022-09-01T06:25:09;21.80;60.40
67820;DHT22;54618;52.018;5.576;2022-09-01T06:27:36;21.80;60.40
67820;DHT22;54618;52.018;5.576;2022-09-01T06:30:07;21.80;60.40
67820;DHT22;54618;52.018;5.576;2022-09-01T06:32:41;21.70;60.30
67820;DHT22;54618;52.018;5.576;2022-09-01T06:35:09;21.80;60.30
67820;DHT22;54618;52.018;5.576;2022-09-01T06:37:37;21.80;60.30
67820;DHT22;54618;52.018;5.576;2022-09-01T06:40:03;21.80;60.30
67820;DHT22;54618;52.018;5.576;2022-09-01T06:42:29;21.80;60.30
67820;DHT22;54618;52.018;5.576;2022-09-01T06:45:00;21.80;60.30
67820;DHT22;54618;52.018;5.576;2022-09-01T06:47:26;21.80;60.30
67820;DHT22;54618;52.018;5.576;2022-09-01T06:49:53;21.80;60.30
67820;DHT22;54618;52.018;5.576;2022-09-01T06:52:23;21.80;60.20
67820;DHT22;54618;52.018;5.576;2022-09-01T06:54:49;21.70;60.10
67820;DHT22;54618;52.018;5.576;2022-09-01T06:57:18;21.70;60.10
67820;DHT22;54618;52.018;5.576;2022-09-01T06:59:46;21.80;60.20
67820;DHT22;54618;52.018;5.576;2022-09-01T07:02:12;21.80;60.20
67820;DHT22;54618;52.018;5.576;2022-09-01T07:04:41;21.80;60.20
67820;DHT22;54618;52.018;5.576;2022-09-01T07:07:09;21.70;60.10
67820;DHT22;54618;52.018;5.576;2022-09-01T07:09:35;21.80;60.20
67820;DHT22;54618;52.018;5.576;2022-09-01T07:12:01;21.80;60.20
67820;DHT22;54618;52.018;5.576;2022-09-01T07:14:29;21.70;60.10
67820;DHT22;54618;52.018;5.576;2022-09-01T07:16:54;21.80;60.20
67820;DHT22;54618;52.018;5.576;2022-09-01T07:19:21;21.80;60.20
67820;DHT22;54618;52.018;5.576;2022-09-01T07:21:47;21.70;60.10
67820;DHT22;54618;52.018;5.576;2022-09-01T07:24:13;21.80;60.10
67820;DHT22;54618;52.018;5.576;2022-09-01T07:26:42;21.70;60.10
67820;DHT22;54618;52.018;5.576;2022-09-01T07:29:09;21.70;60.10
67820;DHT22;54618;52.018;5.576;2022-09-01T07:31:37;21.70;60.00
67820;DHT22;54618;52.018;5.576;2022-09-01T07:34:07;21.70;60.00
67820;DHT22;54618;52.018;5.576;2022-09-01T07:36:34;21.80;60.00
67820;DHT22;54618;52.018;5.576;2022-09-01T07:39:02;21.70;60.00
67820;DHT22;54618;52.018;5.576;2022-09-01T07:41:28;21.70;60.00
67820;DHT22;54618;52.018;5.576;2022-09-01T07:43:53;21.80;60.00
67820;DHT22;54618;52.018;5.576;2022-09-01T07:46:23;21.70;60.00
67820;DHT22;54618;52.018;5.576;2022-09-01T07:48:52;21.70;59.90
67820;DHT22;54618;52.018;5.576;2022-09-01T07:51:19;21.80;60.00
67820;DHT22;54618;52.018;5.576;2022-09-01T07:53:47;21.70;59.90
67820;DHT22;54618;52.018;5.576;2022-09-01T07:56:15;21.80;59.90
67820;DHT22;54618;52.018;5.576;2022-09-01T07:58:44;21.70;59.90
67820;DHT22;54618;52.018;5.576;2022-09-01T08:01:12;21.80;59.90
67820;DHT22;54618;52.018;5.576;2022-09-01T08:03:39;21.70;59.70
67820;DHT22;54618;52.018;5.576;2022-09-01T08:06:10;21.80;59.70
67820;DHT22;54618;52.018;5.576;2022-09-01T08:08:37;21.80;59.70
67820;DHT22;54618;52.018;5.576;2022-09-01T08:11:04;21.80;59.60
67820;DHT22;54618;52.018;5.576;2022-09-01T08:13:34;21.80;59.60
67820;DHT22;54618;52.018;5.576;2022-09-01T08:16:04;21.80;59.60
67820;DHT22;54618;52.018;5.576;2022-09-01T08:18:31;21.80;59.50
67820;DHT22;54618;52.018;5.576;2022-09-01T08:20:57;21.80;59.50
67820;DHT22;54618;52.018;5.576;2022-09-01T08:23:23;21.80;59.50
67820;DHT22;54618;52.018;5.576;2022-09-01T08:25:52;21.80;59.50
67820;DHT22;54618;52.018;5.576;2022-09-01T08:28:18;21.80;59.50
67820;DHT22;54618;52.018;5.576;2022-09-01T08:30:45;21.80;59.50
67820;DHT22;54618;52.018;5.576;2022-09-01T08:33:13;21.80;59.50
67820;DHT22;54618;52.018;5.576;2022-09-01T08:35:39;21.80;59.50
67820;DHT22;54618;52.018;5.576;2022-09-01T08:38:05;21.80;59.60
67820;DHT22;54618;52.018;5.576;2022-09-01T08:40:31;21.80;59.70
67820;DHT22;54618;52.018;5.576;2022-09-01T08:45:56;21.80;59.70
67820;DHT22;54618;52.018;5.576;2022-09-01T08:48:27;21.80;59.70
67820;DHT22;54618;52.018;5.576;2022-09-01T08:51:04;21.80;59.70
67820;DHT22;54618;52.018;5.576;2022-09-01T08:53:41;21.80;59.70
67820;DHT22;54618;52.018;5.576;2022-09-01T08:56:08;21.80;59.60
67820;DHT22;54618;52.018;5.576;2022-09-01T08:58:35;21.80;59.60
67820;DHT22;54618;52.018;5.576;2022-09-01T09:01:08;21.80;59.60
67820;DHT22;54618;52.018;5.576;2022-09-01T09:04:05;21.80;59.60
67820;DHT22;54618;52.018;5.576;2022-09-01T09:10:13;21.80;59.50
67820;DHT22;54618;52.018;5.576;2022-09-01T09:13:15;21.80;59.40
67820;DHT22;54618;52.018;5.576;2022-09-01T09:16:05;21.80;59.60
67820;DHT22;54618;52.018;5.576;2022-09-01T09:18:42;21.80;59.50
67820;DHT22;54618;52.018;5.576;2022-09-01T09:21:19;21.80;59.40
67820;DHT22;54618;52.018;5.576;2022-09-01T09:23:53;21.80;59.50
67820;DHT22;54618;52.018;5.576;2022-09-01T09:26:20;21.80;59.40
67820;DHT22;54618;52.018;5.576;2022-09-01T09:28:47;21.80;59.50
67820;DHT22;54618;52.018;5.576;2022-09-01T09:31:43;21.80;59.50
67820;DHT22;54618;52.018;5.576;2022-09-01T09:36:54;21.80;59.70
67820;DHT22;54618;52.018;5.576;2022-09-01T09:39:19;21.80;59.70
67820;DHT22;54618;52.018;5.576;2022-09-01T09:42:06;21.80;59.80
67820;DHT22;54618;52.018;5.576;2022-09-01T09:44:41;21.80;59.90
67820;DHT22;54618;52.018;5.576;2022-09-01T09:47:09;21.80;59.90
67820;DHT22;54618;52.018;5.576;2022-09-01T09:49:35;21.80;59.90
67820;DHT22;54618;52.018;5.576;2022-09-01T09:54:32;21.80;59.80
67820;DHT22;54618;52.018;5.576;2022-09-01T09:59:36;21.80;59.90
67820;DHT22;54618;52.018;5.576;2022-09-01T10:02:33;21.90;60.00
67820;DHT22;54618;52.018;5.576;2022-09-01T10:05:21;21.80;59.90
67820;DHT22;54618;52.018;5.576;2022-09-01T10:07:48;21.80;60.00
67820;DHT22;54618;52.018;5.576;2022-09-01T10:13:02;21.80;60.00
67820;DHT22;54618;52.018;5.576;2022-09-01T10:15:31;21.80;60.00
67820;DHT22;54618;52.018;5.576;2022-09-01T10:18:03;21.80;60.10
67820;DHT22;54618;52.018;5.576;2022-09-01T10:20:33;21.80;59.50
67820;DHT22;54618;52.018;5.576;2022-09-01T10:23:00;21.90;59.60
67820;DHT22;54618;52.018;5.576;2022-09-01T10:25:29;22.00;59.60
67820;DHT22;54618;52.018;5.576;2022-09-01T10:28:18;22.20;59.60
67820;DHT22;54618;52.018;5.576;2022-09-01T10:30:51;22.20;59.00
67820;DHT22;54618;52.018;5.576;2022-09-01T10:33:20;22.30;59.20
67820;DHT22;54618;52.018;5.576;2022-09-01T10:35:50;22.30;59.10
67820;DHT22;54618;52.018;5.576;2022-09-01T10:38:23;22.40;59.00
67820;DHT22;54618;52.018;5.576;2022-09-01T10:40:55;22.50;58.90
67820;DHT22;54618;52.018;5.576;2022-09-01T10:43:37;22.50;58.90
67820;DHT22;54618;52.018;5.576;2022-09-01T10:46:40;22.50;58.90
67820;DHT22;54618;52.018;5.576;2022-09-01T10:49:55;22.50;58.60
67820;DHT22;54618;52.018;5.576;2022-09-01T10:52:06;22.50;58.70
67820;DHT22;54618;52.018;5.576;2022-09-01T10:59:48;22.50;58.80
67820;DHT22;54618;52.018;5.576;2022-09-01T11:02:16;22.50;58.80
67820;DHT22;54618;52.018;5.576;2022-09-01T11:11:00;22.50;58.70
67820;DHT22;54618;52.018;5.576;2022-09-01T11:13:21;22.50;58.60
67820;DHT22;54618;52.018;5.576;2022-09-01T11:15:48;22.50;58.60
67820;DHT22;54618;52.018;5.576;2022-09-01T11:18:26;22.50;58.80
67820;DHT22;54618;52.018;5.576;2022-09-01T11:20:54;22.50;58.60
67820;DHT22;54618;52.018;5.576;2022-09-01T11:25:47;22.50;58.60
67820;DHT22;54618;52.018;5.576;2022-09-01T11:41:59;22.50;58.70
67820;DHT22;54618;52.018;5.576;2022-09-01T11:47:30;22.40;58.70
67820;DHT22;54618;52.018;5.576;2022-09-01T11:50:16;22.40;58.70
67820;DHT22;54618;52.018;5.576;2022-09-01T11:52:55;22.40;58.70
67820;DHT22;54618;52.018;5.576;2022-09-01T11:57:54;22.40;58.80
67820;DHT22;54618;52.018;5.576;2022-09-01T12:00:29;22.40;58.80
67820;DHT22;54618;52.018;5.576;2022-09-01T12:02:55;22.40;58.90
67820;DHT22;54618;52.018;5.576;2022-09-01T12:05:29;22.40;58.90
67820;DHT22;54618;52.018;5.576;2022-09-01T12:07:56;22.40;58.90
67820;DHT22;54618;52.018;5.576;2022-09-01T12:10:38;22.40;58.90
67820;DHT22;54618;52.018;5.576;2022-09-01T12:13:17;22.40;58.90
67820;DHT22;54618;52.018;5.576;2022-09-01T12:15:50;22.40;58.90
67820;DHT22;54618;52.018;5.576;2022-09-01T12:18:20;22.40;58.90
67820;DHT22;54618;52.018;5.576;2022-09-01T12:20:48;22.40;59.00
67820;DHT22;54618;52.018;5.576;2022-09-01T12:23:29;22.40;59.00
67820;DHT22;54618;52.018;5.576;2022-09-01T12:26:17;22.40;58.90
67820;DHT22;54618;52.018;5.576;2022-09-01T12:28:43;22.40;59.00
67820;DHT22;54618;52.018;5.576;2022-09-01T12:31:19;22.40;59.00
67820;DHT22;54618;52.018;5.576;2022-09-01T12:33:46;22.40;59.00
67820;DHT22;54618;52.018;5.576;2022-09-01T12:36:27;22.40;59.00
67820;DHT22;54618;52.018;5.576;2022-09-01T12:38:55;22.40;59.10
67820;DHT22;54618;52.018;5.576;2022-09-01T12:41:37;22.30;59.00
67820;DHT22;54618;52.018;5.576;2022-09-01T12:44:33;22.30;59.70
67820;DHT22;54618;52.018;5.576;2022-09-01T12:50:06;22.40;59.10
67820;DHT22;54618;52.018;5.576;2022-09-01T12:52:34;22.30;59.10
67820;DHT22;54618;52.018;5.576;2022-09-01T12:57:29;22.30;59.00
67820;DHT22;54618;52.018;5.576;2022-09-01T13:07:53;22.30;59.10
67820;DHT22;54618;52.018;5.576;2022-09-01T13:10:20;22.30;59.00
67820;DHT22;54618;52.018;5.576;2022-09-01T13:12:46;22.30;59.10
67820;DHT22;54618;52.018;5.576;2022-09-01T13:15:12;22.30;59.10
67820;DHT22;54618;52.018;5.576;2022-09-01T13:17:38;22.30;59.10
67820;DHT22;54618;52.018;5.576;2022-09-01T13:20:07;22.30;59.10
67820;DHT22;54618;52.018;5.576;2022-09-01T13:22:34;22.30;59.00
67820;DHT22;54618;52.018;5.576;2022-09-01T13:25:00;22.30;59.10
67820;DHT22;54618;52.018;5.576;2022-09-01T13:27:26;22.30;59.00
67820;DHT22;54618;52.018;5.576;2022-09-01T13:29:52;22.30;59.00
67820;DHT22;54618;52.018;5.576;2022-09-01T13:32:20;22.30;59.10
67820;DHT22;54618;52.018;5.576;2022-09-01T13:34:46;22.30;59.10
67820;DHT22;54618;52.018;5.576;2022-09-01T13:37:12;22.30;59.10
67820;DHT22;54618;52.018;5.576;2022-09-01T13:39:38;22.30;59.20
67820;DHT22;54618;52.018;5.576;2022-09-01T13:42:04;22.30;59.20
67820;DHT22;54618;52.018;5.576;2022-09-01T13:44:30;22.30;59.20
67820;DHT22;54618;52.018;5.576;2022-09-01T13:46:55;22.30;59.20
67820;DHT22;54618;52.018;5.576;2022-09-01T13:49:21;22.30;59.10
67820;DHT22;54618;52.018;5.576;2022-09-01T13:51:53;22.30;59.10
67820;DHT22;54618;52.018;5.576;2022-09-01T13:54:19;22.30;59.00
67820;DHT22;54618;52.018;5.576;2022-09-01T13:56:45;22.30;59.00
67820;DHT22;54618;52.018;5.576;2022-09-01T13:59:11;22.30;59.10
67820;DHT22;54618;52.018;5.576;2022-09-01T14:01:36;22.30;59.20
67820;DHT22;54618;52.018;5.576;2022-09-01T14:04:02;22.30;59.30
67820;DHT22;54618;52.018;5.576;2022-09-01T14:06:31;22.30;59.30
67820;DHT22;54618;52.018;5.576;2022-09-01T14:08:57;22.20;59.20
67820;DHT22;54618;52.018;5.576;2022-09-01T14:11:23;22.20;59.30
67820;DHT22;54618;52.018;5.576;2022-09-01T14:13:50;22.30;59.30
67820;DHT22;54618;52.018;5.576;2022-09-01T14:16:16;22.20;59.20
67820;DHT22;54618;52.018;5.576;2022-09-01T14:18:41;22.20;59.20
67820;DHT22;54618;52.018;5.576;2022-09-01T14:21:12;22.20;59.20
67820;DHT22;54618;52.018;5.576;2022-09-01T14:23:39;22.20;59.20
67820;DHT22;54618;52.018;5.576;2022-09-01T14:26:12;22.20;59.20
67820;DHT22;54618;52.018;5.576;2022-09-01T14:28:40;22.20;59.20
67820;DHT22;54618;52.018;5.576;2022-09-01T14:31:10;22.20;59.20
67820;DHT22;54618;52.018;5.576;2022-09-01T14:33:36;22.20;59.20
67820;DHT22;54618;52.018;5.576;2022-09-01T14:36:03;22.20;59.30
67820;DHT22;54618;52.018;5.576;2022-09-01T14:38:30;22.20;59.30
67820;DHT22;54618;52.018;5.576;2022-09-01T14:40:55;22.20;59.20
67820;DHT22;54618;52.018;5.576;2022-09-01T14:43:21;22.20;59.20
67820;DHT22;54618;52.018;5.576;2022-09-01T14:45:48;22.20;59.20
67820;DHT22;54618;52.018;5.576;2022-09-01T14:48:15;22.20;59.20
67820;DHT22;54618;52.018;5.576;2022-09-01T14:50:44;22.20;59.20
67820;DHT22;54618;52.018;5.576;2022-09-01T14:53:11;22.20;59.20
67820;DHT22;54618;52.018;5.576;2022-09-01T14:55:37;22.20;59.20
67820;DHT22;54618;52.018;5.576;2022-09-01T14:58:03;22.20;59.20
67820;DHT22;54618;52.018;5.576;2022-09-01T15:00:29;22.20;59.20
67820;DHT22;54618;52.018;5.576;2022-09-01T15:02:56;22.20;59.20
67820;DHT22;54618;52.018;5.576;2022-09-01T15:05:23;22.20;59.30
67820;DHT22;54618;52.018;5.576;2022-09-01T15:07:49;22.20;59.30
67820;DHT22;54618;52.018;5.576;2022-09-01T15:10:16;22.20;59.20
67820;DHT22;54618;52.018;5.576;2022-09-01T15:12:42;22.20;59.20
67820;DHT22;54618;52.018;5.576;2022-09-01T15:15:09;22.20;59.20
67820;DHT22;54618;52.018;5.576;2022-09-01T15:17:34;22.20;59.20
67820;DHT22;54618;52.018;5.576;2022-09-01T15:20:03;22.20;59.20
67820;DHT22;54618;52.018;5.576;2022-09-01T15:23:05;22.20;59.20
67820;DHT22;54618;52.018;5.576;2022-09-01T15:25:31;22.20;59.20
67820;DHT22;54618;52.018;5.576;2022-09-01T15:27:57;22.20;59.20
67820;DHT22;54618;52.018;5.576;2022-09-01T15:30:23;22.20;59.20
67820;DHT22;54618;52.018;5.576;2022-09-01T15:32:51;22.10;59.20
67820;DHT22;54618;52.018;5.576;2022-09-01T15:35:19;22.20;59.20
67820;DHT22;54618;52.018;5.576;2022-09-01T15:37:46;22.20;59.20
67820;DHT22;54618;52.018;5.576;2022-09-01T15:40:12;22.20;59.30
67820;DHT22;54618;52.018;5.576;2022-09-01T15:42:38;22.20;59.30
67820;DHT22;54618;52.018;5.576;2022-09-01T15:45:07;22.20;59.30
67820;DHT22;54618;52.018;5.576;2022-09-01T15:47:34;22.10;59.20
67820;DHT22;54618;52.018;5.576;2022-09-01T15:49:59;22.10;59.20
67820;DHT22;54618;52.018;5.576;2022-09-01T15:52:25;22.10;59.20
67820;DHT22;54618;52.018;5.576;2022-09-01T15:54:52;22.10;59.20
67820;DHT22;54618;52.018;5.576;2022-09-01T15:57:18;22.10;59.20
67820;DHT22;54618;52.018;5.576;2022-09-01T15:59:43;22.10;59.20
67820;DHT22;54618;52.018;5.576;2022-09-01T16:02:10;22.10;59.20
67820;DHT22;54618;52.018;5.576;2022-09-01T16:04:36;22.10;59.90
67820;DHT22;54618;52.018;5.576;2022-09-01T16:07:02;22.10;59.20
67820;DHT22;54618;52.018;5.576;2022-09-01T16:09:28;22.10;59.60
67820;DHT22;54618;52.018;5.576;2022-09-01T16:11:54;22.20;59.30
67820;DHT22;54618;52.018;5.576;2022-09-01T16:14:20;22.10;59.20
67820;DHT22;54618;52.018;5.576;2022-09-01T16:19:52;22.20;59.30
67820;DHT22;54618;52.018;5.576;2022-09-01T16:22:24;22.10;59.20
67820;DHT22;54618;52.018;5.576;2022-09-01T16:24:52;22.10;59.20
67820;DHT22;54618;52.018;5.576;2022-09-01T16:27:28;22.10;59.20
67820;DHT22;54618;52.018;5.576;2022-09-01T16:30:01;22.10;59.30
67820;DHT22;54618;52.018;5.576;2022-09-01T16:32:28;22.10;59.30
67820;DHT22;54618;52.018;5.576;2022-09-01T16:34:56;22.10;59.30
67820;DHT22;54618;52.018;5.576;2022-09-01T16:40:16;22.10;59.30
67820;DHT22;54618;52.018;5.576;2022-09-01T16:42:55;22.10;59.30
67820;DHT22;54618;52.018;5.576;2022-09-01T16:48:17;22.10;59.30
67820;DHT22;54618;52.018;5.576;2022-09-01T16:53:46;22.10;59.30
67820;DHT22;54618;52.018;5.576;2022-09-01T16:56:31;22.10;59.40
67820;DHT22;54618;52.018;5.576;2022-09-01T16:59:02;22.10;59.40